sensor_id;sensor_type;location;lat;lon;timestamp;temperature;humidity
21662;DHT22;10992;48.170;8.596;2023-12-20T00:02:03;4.20;99.90
21662;DHT22;10992;48.170;8.596;2023-12-20T00:04:30;4.10;99.90
21662;DHT22;10992;48.170;8.596;2023-12-20T00:06:57;4.10;99.90
21662;DHT22;10992;48.170;8.596;2023-12-20T00:09:24;4.00;99.90
21662;DHT22;10992;48.170;8.596;2023-12-20T00:11:51;3.90;99.90
21662;DHT22;10992;48.170;8.596;2023-12-20T00:14:18;3.90;99.90
21662;DHT22;10992;48.170;8.596;2023-12-20T00:16:44;3.80;99.90
21662;DHT22;10992;48.170;8.596;2023-12-20T00:19:11;3.80;99.90
21662;DHT22;10992;48.170;8.596;2023-12-20T00:21:38;3.80;99.90
21662;DHT22;10992;48.170;8.596;2023-12-20T00:24:05;3.80;99.90
21662;DHT22;10992;48.170;8.596;2023-12-20T00:26:32;3.70;99.90
21662;DHT22;10992;48.170;8.596;2023-12-20T00:28:59;3.80;99.90
21662;DHT22;10992;48.170;8.596;2023-12-20T00:31:26;3.70;99.90
21662;DHT22;10992;48.170;8.596;2023-12-20T00:33:53;3.70;99.90
21662;DHT22;10992;48.170;8.596;2023-12-20T00:36:20;3.70;99.90
21662;DHT22;10992;48.170;8.596;2023-12-20T00:38:47;3.70;99.90
21662;DHT22;10992;48.170;8.596;2023-12-20T00:41:14;3.80;99.90
21662;DHT22;10992;48.170;8.596;2023-12-20T00:43:41;3.80;99.90
21662;DHT22;10992;48.170;8.596;2023-12-20T00:46:07;3.80;99.90
21662;DHT22;10992;48.170;8.596;2023-12-20T00:48:34;3.80;99.90
21662;DHT22;10992;48.170;8.596;2023-12-20T00:51:01;3.80;99.90
21662;DHT22;10992;48.170;8.596;2023-12-20T00:53:28;3.80;99.90
21662;DHT22;10992;48.170;8.596;2023-12-20T00:55:55;3.80;99.90
21662;DHT22;10992;48.170;8.596;2023-12-20T00:58:22;3.80;99.90
21662;DHT22;10992;48.170;8.596;2023-12-20T01:00:49;3.80;99.90
21662;DHT22;10992;48.170;8.596;2023-12-20T01:03:17;3.80;99.90
21662;DHT22;10992;48.170;8.596;2023-12-20T01:05:44;3.80;99.90
21662;DHT22;10992;48.170;8.596;2023-12-20T01:08:11;3.80;99.90
21662;DHT22;10992;48.170;8.596;2023-12-20T01:10:38;3.80;99.90
21662;DHT22;10992;48.170;8.596;2023-12-20T01:13:05;3.80;99.90
21662;DHT22;10992;48.170;8.596;2023-12-20T01:15:32;3.70;99.90
21662;DHT22;10992;48.170;8.596;2023-12-20T01:17:58;3.80;99.90
21662;DHT22;10992;48.170;8.596;2023-12-20T01:20:26;3.80;99.90
21662;DHT22;10992;48.170;8.596;2023-12-20T01:22:53;3.80;99.90
21662;DHT22;10992;48.170;8.596;2023-12-20T01:25:19;3.80;99.90
21662;DHT22;10992;48.170;8.596;2023-12-20T01:27:46;3.80;99.90
21662;DHT22;10992;48.170;8.596;2023-12-20T01:30:14;3.80;99.90
21662;DHT22;10992;48.170;8.596;2023-12-20T01:32:42;3.80;99.90
21662;DHT22;10992;48.170;8.596;2023-12-20T01:35:09;3.80;99.90
21662;DHT22;10992;48.170;8.596;2023-12-20T01:37:36;3.80;99.90
21662;DHT22;10992;48.170;8.596;2023-12-20T01:40:04;3.80;99.90
21662;DHT22;10992;48.170;8.596;2023-12-20T01:42:31;3.80;99.90
21662;DHT22;10992;48.170;8.596;2023-12-20T01:44:58;3.80;99.90
21662;DHT22;10992;48.170;8.596;2023-12-20T01:47:25;3.80;99.90
21662;DHT22;10992;48.170;8.596;2023-12-20T01:49:54;3.80;99.90
21662;DHT22;10992;48.170;8.596;2023-12-20T01:52:23;3.80;99.90
21662;DHT22;10992;48.170;8.596;2023-12-20T01:54:52;3.90;99.90
21662;DHT22;10992;48.170;8.596;2023-12-20T01:57:22;3.80;99.90
21662;DHT22;10992;48.170;8.596;2023-12-20T01:59:49;3.80;99.90
21662;DHT22;10992;48.170;8.596;2023-12-20T02:02:15;3.80;99.90
21662;DHT22;10992;48.170;8.596;2023-12-20T02:04:42;3.80;99.90
21662;DHT22;10992;48.170;8.596;2023-12-20T02:07:11;3.80;99.90
21662;DHT22;10992;48.170;8.596;2023-12-20T02:09:39;3.80;99.90
21662;DHT22;10992;48.170;8.596;2023-12-20T02:12:07;3.80;99.90
21662;DHT22;10992;48.170;8.596;2023-12-20T02:14:34;3.80;99.90
21662;DHT22;10992;48.170;8.596;2023-12-20T02:17:01;3.80;99.90
21662;DHT22;10992;48.170;8.596;2023-12-20T02:19:28;3.70;99.90
21662;DHT22;10992;48.170;8.596;2023-12-20T02:22:11;3.70;99.90
21662;DHT22;10992;48.170;8.596;2023-12-20T02:24:38;3.70;99.90
21662;DHT22;10992;48.170;8.596;2023-12-20T02:27:07;3.70;99.90
21662;DHT22;10992;48.170;8.596;2023-12-20T02:29:34;3.70;99.90
21662;DHT22;10992;48.170;8.596;2023-12-20T02:32:02;3.70;99.90
21662;DHT22;10992;48.170;8.596;2023-12-20T02:34:29;3.70;99.90
21662;DHT22;10992;48.170;8.596;2023-12-20T02:36:56;3.70;99.90
21662;DHT22;10992;48.170;8.596;2023-12-20T02:39:23;3.70;99.90
21662;DHT22;10992;48.170;8.596;2023-12-20T02:41:50;3.70;99.90
21662;DHT22;10992;48.170;8.596;2023-12-20T02:44:17;3.80;99.90
21662;DHT22;10992;48.170;8.596;2023-12-20T02:46:44;3.80;99.90
21662;DHT22;10992;48.170;8.596;2023-12-20T02:49:11;3.80;99.90
21662;DHT22;10992;48.170;8.596;2023-12-20T02:51:38;3.80;99.90
21662;DHT22;10992;48.170;8.596;2023-12-20T02:54:06;3.80;99.90
21662;DHT22;10992;48.170;8.596;2023-12-20T02:56:33;3.80;99.90
21662;DHT22;10992;48.170;8.596;2023-12-20T02:59:00;3.80;99.90
21662;DHT22;10992;48.170;8.596;2023-12-20T03:01:29;3.80;99.90
21662;DHT22;10992;48.170;8.596;2023-12-20T03:03:56;3.80;99.90
21662;DHT22;10992;48.170;8.596;2023-12-20T03:06:24;3.80;99.90
21662;DHT22;10992;48.170;8.596;2023-12-20T03:08:51;3.80;99.90
21662;DHT22;10992;48.170;8.596;2023-12-20T03:11:18;3.80;99.90
21662;DHT22;10992;48.170;8.596;2023-12-20T03:13:45;3.80;99.90
21662;DHT22;10992;48.170;8.596;2023-12-20T03:16:13;3.80;99.90
21662;DHT22;10992;48.170;8.596;2023-12-20T03:18:40;3.80;99.90
21662;DHT22;10992;48.170;8.596;2023-12-20T03:21:07;3.80;99.90
21662;DHT22;10992;48.170;8.596;2023-12-20T03:23:34;3.80;99.90
21662;DHT22;10992;48.170;8.596;2023-12-20T03:26:01;3.80;99.90
21662;DHT22;10992;48.170;8.596;2023-12-20T03:28:29;3.80;99.90
21662;DHT22;10992;48.170;8.596;2023-12-20T03:30:56;3.80;99.90
21662;DHT22;10992;48.170;8.596;2023-12-20T03:33:23;3.80;99.90
21662;DHT22;10992;48.170;8.596;2023-12-20T03:35:50;3.80;99.90
21662;DHT22;10992;48.170;8.596;2023-12-20T03:38:17;3.80;99.90
21662;DHT22;10992;48.170;8.596;2023-12-20T03:40:44;3.80;99.90
21662;DHT22;10992;48.170;8.596;2023-12-20T03:43:11;3.80;99.90
21662;DHT22;10992;48.170;8.596;2023-12-20T03:45:38;3.80;99.90
21662;DHT22;10992;48.170;8.596;2023-12-20T03:48:05;3.80;99.90
21662;DHT22;10992;48.170;8.596;2023-12-20T03:50:32;3.80;99.90
21662;DHT22;10992;48.170;8.596;2023-12-20T03:52:59;3.70;99.90
21662;DHT22;10992;48.170;8.596;2023-12-20T03:55:26;3.70;99.90
21662;DHT22;10992;48.170;8.596;2023-12-20T03:57:53;3.70;99.90
21662;DHT22;10992;48.170;8.596;2023-12-20T04:00:20;3.70;99.90
21662;DHT22;10992;48.170;8.596;2023-12-20T04:02:47;3.70;99.90
21662;DHT22;10992;48.170;8.596;2023-12-20T04:05:15;3.70;99.90
21662;DHT22;10992;48.170;8.596;2023-12-20T04:07:42;3.70;99.90
21662;DHT22;10992;48.170;8.596;2023-12-20T04:10:09;3.60;99.90
21662;DHT22;10992;48.170;8.596;2023-12-20T04:12:36;3.70;99.90
21662;DHT22;10992;48.170;8.596;2023-12-20T04:15:04;3.60;99.90
21662;DHT22;10992;48.170;8.596;2023-12-20T04:17:36;3.60;99.90
21662;DHT22;10992;48.170;8.596;2023-12-20T04:20:03;3.70;99.90
21662;DHT22;10992;48.170;8.596;2023-12-20T04:22:31;3.70;99.90
21662;DHT22;10992;48.170;8.596;2023-12-20T04:24:58;3.70;99.90
21662;DHT22;10992;48.170;8.596;2023-12-20T04:27:25;3.70;99.90
21662;DHT22;10992;48.170;8.596;2023-12-20T04:29:51;3.60;99.90
21662;DHT22;10992;48.170;8.596;2023-12-20T04:32:19;3.60;99.90
21662;DHT22;10992;48.170;8.596;2023-12-20T04:34:46;3.60;99.90
21662;DHT22;10992;48.170;8.596;2023-12-20T04:37:12;3.50;99.90
21662;DHT22;10992;48.170;8.596;2023-12-20T04:39:39;3.50;99.90
21662;DHT22;10992;48.170;8.596;2023-12-20T04:42:08;3.50;99.90
21662;DHT22;10992;48.170;8.596;2023-12-20T04:44:35;3.40;99.90
21662;DHT22;10992;48.170;8.596;2023-12-20T04:47:02;3.40;99.90
21662;DHT22;10992;48.170;8.596;2023-12-20T04:49:29;3.30;99.90
21662;DHT22;10992;48.170;8.596;2023-12-20T04:51:56;3.30;99.90
21662;DHT22;10992;48.170;8.596;2023-12-20T04:54:23;3.20;99.90
21662;DHT22;10992;48.170;8.596;2023-12-20T04:56:50;3.20;99.90
21662;DHT22;10992;48.170;8.596;2023-12-20T04:59:17;3.20;99.90
21662;DHT22;10992;48.170;8.596;2023-12-20T05:01:44;3.10;99.90
21662;DHT22;10992;48.170;8.596;2023-12-20T05:04:11;3.10;99.90
21662;DHT22;10992;48.170;8.596;2023-12-20T05:06:38;3.10;99.90
21662;DHT22;10992;48.170;8.596;2023-12-20T05:09:05;3.10;99.90
21662;DHT22;10992;48.170;8.596;2023-12-20T05:11:33;3.10;99.90
21662;DHT22;10992;48.170;8.596;2023-12-20T05:14:00;3.10;99.90
21662;DHT22;10992;48.170;8.596;2023-12-20T05:16:26;3.10;99.90
21662;DHT22;10992;48.170;8.596;2023-12-20T05:18:53;3.10;99.90
21662;DHT22;10992;48.170;8.596;2023-12-20T05:21:21;3.10;99.90
21662;DHT22;10992;48.170;8.596;2023-12-20T05:23:48;3.00;99.90
21662;DHT22;10992;48.170;8.596;2023-12-20T05:26:15;3.00;99.90
21662;DHT22;10992;48.170;8.596;2023-12-20T05:28:42;3.10;99.90
21662;DHT22;10992;48.170;8.596;2023-12-20T05:31:08;3.00;99.90
21662;DHT22;10992;48.170;8.596;2023-12-20T05:33:36;3.00;99.90
21662;DHT22;10992;48.170;8.596;2023-12-20T05:36:04;3.00;99.90
21662;DHT22;10992;48.170;8.596;2023-12-20T05:38:31;3.00;99.90
21662;DHT22;10992;48.170;8.596;2023-12-20T05:40:58;3.00;99.90
21662;DHT22;10992;48.170;8.596;2023-12-20T05:43:25;3.00;99.90
21662;DHT22;10992;48.170;8.596;2023-12-20T05:45:52;3.00;99.90
21662;DHT22;10992;48.170;8.596;2023-12-20T05:48:19;2.90;99.90
21662;DHT22;10992;48.170;8.596;2023-12-20T05:50:46;3.00;99.90
21662;DHT22;10992;48.170;8.596;2023-12-20T05:53:13;3.00;99.90
21662;DHT22;10992;48.170;8.596;2023-12-20T05:55:39;2.90;99.90
21662;DHT22;10992;48.170;8.596;2023-12-20T05:58:06;3.00;99.90
21662;DHT22;10992;48.170;8.596;2023-12-20T06:00:33;2.90;99.90
21662;DHT22;10992;48.170;8.596;2023-12-20T06:03:00;2.90;99.90
21662;DHT22;10992;48.170;8.596;2023-12-20T06:05:27;2.90;99.90
21662;DHT22;10992;48.170;8.596;2023-12-20T06:07:54;2.90;99.90
21662;DHT22;10992;48.170;8.596;2023-12-20T06:10:23;2.80;99.90
21662;DHT22;10992;48.170;8.596;2023-12-20T06:12:50;2.80;99.90
21662;DHT22;10992;48.170;8.596;2023-12-20T06:15:18;2.80;99.90
21662;DHT22;10992;48.170;8.596;2023-12-20T06:17:45;2.80;99.90
21662;DHT22;10992;48.170;8.596;2023-12-20T06:20:15;2.80;99.90
21662;DHT22;10992;48.170;8.596;2023-12-20T06:22:42;2.90;99.90
21662;DHT22;10992;48.170;8.596;2023-12-20T06:25:09;2.90;99.90
21662;DHT22;10992;48.170;8.596;2023-12-20T06:27:36;2.90;99.90
21662;DHT22;10992;48.170;8.596;2023-12-20T06:30:03;2.90;99.90
21662;DHT22;10992;48.170;8.596;2023-12-20T06:32:30;2.90;99.90
21662;DHT22;10992;48.170;8.596;2023-12-20T06:34:57;2.90;99.90
21662;DHT22;10992;48.170;8.596;2023-12-20T06:37:24;2.90;99.90
21662;DHT22;10992;48.170;8.596;2023-12-20T06:39:51;3.00;99.90
21662;DHT22;10992;48.170;8.596;2023-12-20T06:42:18;3.00;99.90
21662;DHT22;10992;48.170;8.596;2023-12-20T06:44:45;3.10;99.90
21662;DHT22;10992;48.170;8.596;2023-12-20T06:47:12;3.20;99.90
21662;DHT22;10992;48.170;8.596;2023-12-20T06:49:40;3.20;99.90
21662;DHT22;10992;48.170;8.596;2023-12-20T06:52:08;3.30;99.90
21662;DHT22;10992;48.170;8.596;2023-12-20T06:54:35;3.20;99.90
21662;DHT22;10992;48.170;8.596;2023-12-20T06:57:02;3.10;99.90
21662;DHT22;10992;48.170;8.596;2023-12-20T06:59:31;3.00;99.90
21662;DHT22;10992;48.170;8.596;2023-12-20T07:01:58;3.10;99.90
21662;DHT22;10992;48.170;8.596;2023-12-20T07:04:25;3.00;99.90
21662;DHT22;10992;48.170;8.596;2023-12-20T07:06:52;3.00;99.90
21662;DHT22;10992;48.170;8.596;2023-12-20T07:09:23;3.00;99.90
21662;DHT22;10992;48.170;8.596;2023-12-20T07:11:50;3.10;99.90
21662;DHT22;10992;48.170;8.596;2023-12-20T07:14:17;3.20;99.90
21662;DHT22;10992;48.170;8.596;2023-12-20T07:16:45;3.20;99.90
21662;DHT22;10992;48.170;8.596;2023-12-20T07:19:13;3.20;99.90
21662;DHT22;10992;48.170;8.596;2023-12-20T07:21:40;3.20;99.90
21662;DHT22;10992;48.170;8.596;2023-12-20T07:24:07;3.10;99.90
21662;DHT22;10992;48.170;8.596;2023-12-20T07:26:35;3.10;99.90
21662;DHT22;10992;48.170;8.596;2023-12-20T07:29:02;3.10;99.90
21662;DHT22;10992;48.170;8.596;2023-12-20T07:31:30;3.10;99.90
21662;DHT22;10992;48.170;8.596;2023-12-20T07:33:57;3.20;99.90
21662;DHT22;10992;48.170;8.596;2023-12-20T07:36:24;3.30;99.90
21662;DHT22;10992;48.170;8.596;2023-12-20T07:38:51;3.20;99.90
21662;DHT22;10992;48.170;8.596;2023-12-20T07:41:18;3.20;99.90
21662;DHT22;10992;48.170;8.596;2023-12-20T07:43:48;3.20;99.90
21662;DHT22;10992;48.170;8.596;2023-12-20T07:46:16;3.20;99.90
21662;DHT22;10992;48.170;8.596;2023-12-20T07:48:45;3.20;99.90
21662;DHT22;10992;48.170;8.596;2023-12-20T07:51:13;3.30;99.90
21662;DHT22;10992;48.170;8.596;2023-12-20T07:53:40;3.30;99.90
21662;DHT22;10992;48.170;8.596;2023-12-20T07:56:17;3.30;99.90
21662;DHT22;10992;48.170;8.596;2023-12-20T07:58:44;3.30;99.90
21662;DHT22;10992;48.170;8.596;2023-12-20T08:01:19;3.30;99.90
21662;DHT22;10992;48.170;8.596;2023-12-20T08:03:48;3.40;99.90
21662;DHT22;10992;48.170;8.596;2023-12-20T08:06:15;3.40;99.90
21662;DHT22;10992;48.170;8.596;2023-12-20T08:08:44;3.50;99.90
21662;DHT22;10992;48.170;8.596;2023-12-20T08:11:11;3.50;99.90
21662;DHT22;10992;48.170;8.596;2023-12-20T08:13:38;3.50;99.90
21662;DHT22;10992;48.170;8.596;2023-12-20T08:16:05;3.50;99.90
21662;DHT22;10992;48.170;8.596;2023-12-20T08:18:32;3.60;99.90
21662;DHT22;10992;48.170;8.596;2023-12-20T08:21:00;3.60;99.90
21662;DHT22;10992;48.170;8.596;2023-12-20T08:23:28;3.60;99.90
21662;DHT22;10992;48.170;8.596;2023-12-20T08:25:58;3.60;99.90
21662;DHT22;10992;48.170;8.596;2023-12-20T08:28:25;3.60;99.90
21662;DHT22;10992;48.170;8.596;2023-12-20T08:30:52;3.60;99.90
21662;DHT22;10992;48.170;8.596;2023-12-20T08:33:20;3.70;99.90
21662;DHT22;10992;48.170;8.596;2023-12-20T08:35:50;3.70;99.90
21662;DHT22;10992;48.170;8.596;2023-12-20T08:38:17;3.70;99.90
21662;DHT22;10992;48.170;8.596;2023-12-20T08:40:44;3.70;99.90
21662;DHT22;10992;48.170;8.596;2023-12-20T08:43:11;3.80;99.90
21662;DHT22;10992;48.170;8.596;2023-12-20T08:45:39;3.80;99.90
21662;DHT22;10992;48.170;8.596;2023-12-20T08:48:06;3.80;99.90
21662;DHT22;10992;48.170;8.596;2023-12-20T08:50:35;3.80;99.90
21662;DHT22;10992;48.170;8.596;2023-12-20T08:53:03;3.80;99.90
21662;DHT22;10992;48.170;8.596;2023-12-20T08:55:30;3.80;99.90
21662;DHT22;10992;48.170;8.596;2023-12-20T08:57:58;3.90;99.90
21662;DHT22;10992;48.170;8.596;2023-12-20T09:00:25;4.00;99.90
21662;DHT22;10992;48.170;8.596;2023-12-20T09:02:54;4.10;99.90
21662;DHT22;10992;48.170;8.596;2023-12-20T09:05:21;4.20;99.90
21662;DHT22;10992;48.170;8.596;2023-12-20T09:07:51;4.20;99.90
21662;DHT22;10992;48.170;8.596;2023-12-20T09:10:18;4.20;99.90
21662;DHT22;10992;48.170;8.596;2023-12-20T09:12:53;4.20;99.90
21662;DHT22;10992;48.170;8.596;2023-12-20T09:15:24;4.20;99.90
21662;DHT22;10992;48.170;8.596;2023-12-20T09:17:51;4.20;99.90
21662;DHT22;10992;48.170;8.596;2023-12-20T09:20:18;4.30;99.90
21662;DHT22;10992;48.170;8.596;2023-12-20T09:22:45;4.30;99.90
21662;DHT22;10992;48.170;8.596;2023-12-20T09:25:12;4.20;99.90
21662;DHT22;10992;48.170;8.596;2023-12-20T09:27:41;4.20;99.90
21662;DHT22;10992;48.170;8.596;2023-12-20T09:30:09;4.30;99.90
21662;DHT22;10992;48.170;8.596;2023-12-20T09:32:36;4.30;99.90
21662;DHT22;10992;48.170;8.596;2023-12-20T09:35:04;4.30;99.90
21662;DHT22;10992;48.170;8.596;2023-12-20T09:37:33;4.30;99.90
21662;DHT22;10992;48.170;8.596;2023-12-20T09:40:00;4.40;99.90
21662;DHT22;10992;48.170;8.596;2023-12-20T09:42:39;4.30;99.90
21662;DHT22;10992;48.170;8.596;2023-12-20T09:45:13;4.30;99.90
21662;DHT22;10992;48.170;8.596;2023-12-20T09:47:46;4.30;99.90
21662;DHT22;10992;48.170;8.596;2023-12-20T09:50:43;4.30;99.90
21662;DHT22;10992;48.170;8.596;2023-12-20T09:53:17;4.40;99.90
21662;DHT22;10992;48.170;8.596;2023-12-20T09:55:46;4.90;99.90
21662;DHT22;10992;48.170;8.596;2023-12-20T09:58:13;5.80;99.90
21662;DHT22;10992;48.170;8.596;2023-12-20T10:00:40;6.70;99.90
21662;DHT22;10992;48.170;8.596;2023-12-20T10:03:08;6.90;99.90
21662;DHT22;10992;48.170;8.596;2023-12-20T10:05:39;6.90;99.90
21662;DHT22;10992;48.170;8.596;2023-12-20T10:08:06;6.50;99.90
21662;DHT22;10992;48.170;8.596;2023-12-20T10:10:34;6.30;99.90
21662;DHT22;10992;48.170;8.596;2023-12-20T10:13:12;6.10;99.90
21662;DHT22;10992;48.170;8.596;2023-12-20T10:15:40;5.90;99.90
21662;DHT22;10992;48.170;8.596;2023-12-20T10:18:09;5.80;99.90
21662;DHT22;10992;48.170;8.596;2023-12-20T10:20:36;6.00;99.90
21662;DHT22;10992;48.170;8.596;2023-12-20T10:23:03;6.40;99.90
21662;DHT22;10992;48.170;8.596;2023-12-20T10:25:30;6.70;99.90
21662;DHT22;10992;48.170;8.596;2023-12-20T10:30:40;6.90;99.90
21662;DHT22;10992;48.170;8.596;2023-12-20T10:33:09;7.10;99.90
21662;DHT22;10992;48.170;8.596;2023-12-20T10:35:38;7.30;99.90
21662;DHT22;10992;48.170;8.596;2023-12-20T10:38:12;8.00;99.90
21662;DHT22;10992;48.170;8.596;2023-12-20T10:40:41;8.60;99.90
21662;DHT22;10992;48.170;8.596;2023-12-20T10:43:10;8.80;99.90
21662;DHT22;10992;48.170;8.596;2023-12-20T10:45:38;9.60;99.90
21662;DHT22;10992;48.170;8.596;2023-12-20T10:48:05;10.60;99.90
21662;DHT22;10992;48.170;8.596;2023-12-20T10:50:33;9.80;99.90
21662;DHT22;10992;48.170;8.596;2023-12-20T10:53:03;8.70;99.90
21662;DHT22;10992;48.170;8.596;2023-12-20T10:55:30;9.50;99.90
21662;DHT22;10992;48.170;8.596;2023-12-20T10:58:01;10.00;99.90
21662;DHT22;10992;48.170;8.596;2023-12-20T11:00:29;9.80;99.90
21662;DHT22;10992;48.170;8.596;2023-12-20T11:03:01;9.30;99.90
21662;DHT22;10992;48.170;8.596;2023-12-20T11:05:53;8.60;99.90
21662;DHT22;10992;48.170;8.596;2023-12-20T11:08:40;8.30;99.90
21662;DHT22;10992;48.170;8.596;2023-12-20T11:11:30;7.70;99.90
21662;DHT22;10992;48.170;8.596;2023-12-20T11:14:03;7.80;99.90
21662;DHT22;10992;48.170;8.596;2023-12-20T11:16:32;8.50;99.90
21662;DHT22;10992;48.170;8.596;2023-12-20T11:19:14;8.80;99.90
21662;DHT22;10992;48.170;8.596;2023-12-20T11:21:41;9.30;99.90
21662;DHT22;10992;48.170;8.596;2023-12-20T11:24:09;9.50;99.90
21662;DHT22;10992;48.170;8.596;2023-12-20T11:26:36;9.00;99.90
21662;DHT22;10992;48.170;8.596;2023-12-20T11:29:39;9.50;99.90
21662;DHT22;10992;48.170;8.596;2023-12-20T11:37:35;10.00;99.90
21662;DHT22;10992;48.170;8.596;2023-12-20T11:40:06;10.70;99.90
21662;DHT22;10992;48.170;8.596;2023-12-20T11:42:38;10.80;99.90
21662;DHT22;10992;48.170;8.596;2023-12-20T11:45:18;10.90;99.90
21662;DHT22;10992;48.170;8.596;2023-12-20T11:47:56;10.80;99.90
21662;DHT22;10992;48.170;8.596;2023-12-20T11:50:25;10.70;99.90
21662;DHT22;10992;48.170;8.596;2023-12-20T11:52:53;10.20;99.90
21662;DHT22;10992;48.170;8.596;2023-12-20T11:55:22;10.10;99.90
21662;DHT22;10992;48.170;8.596;2023-12-20T11:57:51;10.30;99.90
21662;DHT22;10992;48.170;8.596;2023-12-20T12:00:18;9.70;99.90
21662;DHT22;10992;48.170;8.596;2023-12-20T12:02:58;8.70;99.90
21662;DHT22;10992;48.170;8.596;2023-12-20T12:05:25;8.50;99.90
21662;DHT22;10992;48.170;8.596;2023-12-20T12:07:53;7.90;99.90
21662;DHT22;10992;48.170;8.596;2023-12-20T12:10:20;6.60;99.90
21662;DHT22;10992;48.170;8.596;2023-12-20T12:12:47;6.50;99.90
21662;DHT22;10992;48.170;8.596;2023-12-20T12:15:15;6.10;99.90
21662;DHT22;10992;48.170;8.596;2023-12-20T12:17:42;5.70;99.90
21662;DHT22;10992;48.170;8.596;2023-12-20T12:20:10;5.60;99.90
21662;DHT22;10992;48.170;8.596;2023-12-20T12:22:37;5.40;99.90
21662;DHT22;10992;48.170;8.596;2023-12-20T12:25:12;5.30;99.90
21662;DHT22;10992;48.170;8.596;2023-12-20T12:27:41;5.50;99.90
21662;DHT22;10992;48.170;8.596;2023-12-20T12:30:09;5.50;99.90
21662;DHT22;10992;48.170;8.596;2023-12-20T12:32:36;5.70;99.90
21662;DHT22;10992;48.170;8.596;2023-12-20T12:35:04;5.80;99.90
21662;DHT22;10992;48.170;8.596;2023-12-20T12:37:38;5.90;99.90
21662;DHT22;10992;48.170;8.596;2023-12-20T12:40:16;5.80;99.90
21662;DHT22;10992;48.170;8.596;2023-12-20T12:42:45;5.40;99.90
21662;DHT22;10992;48.170;8.596;2023-12-20T12:45:12;5.10;99.90
21662;DHT22;10992;48.170;8.596;2023-12-20T12:47:39;5.00;99.90
21662;DHT22;10992;48.170;8.596;2023-12-20T12:50:07;4.70;99.90
21662;DHT22;10992;48.170;8.596;2023-12-20T12:52:35;4.60;99.90
21662;DHT22;10992;48.170;8.596;2023-12-20T12:55:02;4.50;99.90
21662;DHT22;10992;48.170;8.596;2023-12-20T12:57:32;4.50;99.90
21662;DHT22;10992;48.170;8.596;2023-12-20T12:59:58;4.50;99.90
21662;DHT22;10992;48.170;8.596;2023-12-20T13:02:25;4.50;99.90
21662;DHT22;10992;48.170;8.596;2023-12-20T13:04:53;4.50;99.90
21662;DHT22;10992;48.170;8.596;2023-12-20T13:07:20;4.40;99.90
21662;DHT22;10992;48.170;8.596;2023-12-20T13:09:47;4.30;99.90
21662;DHT22;10992;48.170;8.596;2023-12-20T13:12:17;4.20;99.90
21662;DHT22;10992;48.170;8.596;2023-12-20T13:14:43;4.20;99.90
21662;DHT22;10992;48.170;8.596;2023-12-20T13:17:12;4.10;99.90
21662;DHT22;10992;48.170;8.596;2023-12-20T13:19:39;4.10;99.90
21662;DHT22;10992;48.170;8.596;2023-12-20T13:22:06;4.10;99.90
21662;DHT22;10992;48.170;8.596;2023-12-20T13:24:33;4.20;99.90
21662;DHT22;10992;48.170;8.596;2023-12-20T13:27:00;4.30;99.90
21662;DHT22;10992;48.170;8.596;2023-12-20T13:29:27;4.20;99.90
21662;DHT22;10992;48.170;8.596;2023-12-20T13:31:54;4.20;99.90
21662;DHT22;10992;48.170;8.596;2023-12-20T13:34:21;4.20;99.90
21662;DHT22;10992;48.170;8.596;2023-12-20T13:36:48;4.00;99.90
21662;DHT22;10992;48.170;8.596;2023-12-20T13:39:19;3.90;99.90
21662;DHT22;10992;48.170;8.596;2023-12-20T13:41:46;3.80;99.90
21662;DHT22;10992;48.170;8.596;2023-12-20T13:44:13;3.80;99.90
21662;DHT22;10992;48.170;8.596;2023-12-20T13:46:41;3.80;99.90
21662;DHT22;10992;48.170;8.596;2023-12-20T13:49:08;3.80;99.90
21662;DHT22;10992;48.170;8.596;2023-12-20T13:51:35;3.80;99.90
21662;DHT22;10992;48.170;8.596;2023-12-20T13:54:02;3.70;99.90
21662;DHT22;10992;48.170;8.596;2023-12-20T13:56:29;3.60;99.90
21662;DHT22;10992;48.170;8.596;2023-12-20T13:58:56;3.50;99.90
21662;DHT22;10992;48.170;8.596;2023-12-20T14:01:23;3.70;99.90
21662;DHT22;10992;48.170;8.596;2023-12-20T14:03:50;3.80;99.90
21662;DHT22;10992;48.170;8.596;2023-12-20T14:06:17;3.80;99.90
21662;DHT22;10992;48.170;8.596;2023-12-20T14:08:44;3.90;99.90
21662;DHT22;10992;48.170;8.596;2023-12-20T14:11:11;3.70;99.90
21662;DHT22;10992;48.170;8.596;2023-12-20T14:13:39;3.70;99.90
21662;DHT22;10992;48.170;8.596;2023-12-20T14:16:06;3.80;99.90
21662;DHT22;10992;48.170;8.596;2023-12-20T14:18:32;3.80;99.90
21662;DHT22;10992;48.170;8.596;2023-12-20T14:20:59;3.80;99.90
21662;DHT22;10992;48.170;8.596;2023-12-20T14:23:26;3.80;99.90
21662;DHT22;10992;48.170;8.596;2023-12-20T14:25:53;3.80;99.90
21662;DHT22;10992;48.170;8.596;2023-12-20T14:28:22;3.80;99.90
21662;DHT22;10992;48.170;8.596;2023-12-20T14:30:49;3.80;99.90
21662;DHT22;10992;48.170;8.596;2023-12-20T14:33:17;3.70;99.90
21662;DHT22;10992;48.170;8.596;2023-12-20T14:35:46;3.70;99.90
21662;DHT22;10992;48.170;8.596;2023-12-20T14:38:13;3.70;99.90
21662;DHT22;10992;48.170;8.596;2023-12-20T14:40:42;3.60;99.90
21662;DHT22;10992;48.170;8.596;2023-12-20T14:43:09;3.60;99.90
21662;DHT22;10992;48.170;8.596;2023-12-20T14:45:36;3.50;99.90
21662;DHT22;10992;48.170;8.596;2023-12-20T14:48:04;3.40;99.90
21662;DHT22;10992;48.170;8.596;2023-12-20T14:50:31;3.40;99.90
21662;DHT22;10992;48.170;8.596;2023-12-20T14:52:59;3.30;99.90
21662;DHT22;10992;48.170;8.596;2023-12-20T14:55:26;3.30;99.90
21662;DHT22;10992;48.170;8.596;2023-12-20T14:57:55;3.30;99.90
21662;DHT22;10992;48.170;8.596;2023-12-20T15:00:23;3.20;99.90
21662;DHT22;10992;48.170;8.596;2023-12-20T15:02:49;3.20;99.90
21662;DHT22;10992;48.170;8.596;2023-12-20T15:05:16;3.20;99.90
21662;DHT22;10992;48.170;8.596;2023-12-20T15:07:44;3.20;99.90
21662;DHT22;10992;48.170;8.596;2023-12-20T15:10:12;3.20;99.90
21662;DHT22;10992;48.170;8.596;2023-12-20T15:12:39;3.10;99.90
21662;DHT22;10992;48.170;8.596;2023-12-20T15:15:06;3.10;99.90
21662;DHT22;10992;48.170;8.596;2023-12-20T15:17:36;3.10;99.90
21662;DHT22;10992;48.170;8.596;2023-12-20T15:20:04;3.00;99.90
21662;DHT22;10992;48.170;8.596;2023-12-20T15:22:32;3.10;99.90
21662;DHT22;10992;48.170;8.596;2023-12-20T15:25:00;3.10;99.90
21662;DHT22;10992;48.170;8.596;2023-12-20T15:27:28;3.10;99.90
21662;DHT22;10992;48.170;8.596;2023-12-20T15:29:55;3.00;99.90
21662;DHT22;10992;48.170;8.596;2023-12-20T15:32:22;3.10;99.90
21662;DHT22;10992;48.170;8.596;2023-12-20T15:34:49;3.10;99.90
21662;DHT22;10992;48.170;8.596;2023-12-20T15:37:16;3.00;99.90
21662;DHT22;10992;48.170;8.596;2023-12-20T15:39:43;3.10;99.90
21662;DHT22;10992;48.170;8.596;2023-12-20T15:42:10;3.00;99.90
21662;DHT22;10992;48.170;8.596;2023-12-20T15:44:37;3.00;99.90
21662;DHT22;10992;48.170;8.596;2023-12-20T15:47:04;3.00;99.90
21662;DHT22;10992;48.170;8.596;2023-12-20T15:49:31;3.00;99.90
21662;DHT22;10992;48.170;8.596;2023-12-20T15:51:58;3.00;99.90
21662;DHT22;10992;48.170;8.596;2023-12-20T15:54:25;3.00;99.90
21662;DHT22;10992;48.170;8.596;2023-12-20T15:56:52;3.00;99.90
21662;DHT22;10992;48.170;8.596;2023-12-20T15:59:19;2.90;99.90